createdAt,value
2016-07-03T10:16:52.487Z,61.57
2016-07-03T10:17:52.463Z,60.8
2016-07-03T10:18:52.515Z,60.06
2016-07-03T10:19:52.458Z,61.51
2016-07-03T10:20:52.461Z,60.73
2016-07-03T10:21:52.448Z,60.54
2016-07-03T10:22:52.482Z,59.67
2016-07-03T10:23:52.458Z,60.57
2016-07-03T10:24:52.758Z,58.9
2016-07-03T10:25:52.486Z,57.06
2016-07-03T10:26:52.541Z,57.06
2016-07-03T10:27:52.492Z,57.26
2016-07-03T10:28:52.479Z,59.09
2016-07-03T10:29:52.458Z,59.96
2016-07-03T10:30:52.449Z,59.96
2016-07-03T10:31:52.490Z,60.25
2016-07-03T10:32:52.477Z,59.93
2016-07-03T10:33:52.472Z,60.25
2016-07-03T10:34:52.465Z,59.67
2016-07-03T10:35:52.463Z,60.41
2016-07-03T10:36:52.490Z,59.22
2016-07-03T10:37:52.604Z,59.19
2016-07-03T10:38:52.477Z,59.28
2016-07-03T10:39:52.488Z,59
2016-07-03T10:40:52.540Z,58.8
2016-07-03T10:41:52.586Z,58.68
2016-07-03T10:42:52.518Z,59.19
2016-07-03T10:43:52.507Z,58.73
2016-07-03T10:44:52.489Z,58.9
2016-07-03T10:45:52.480Z,59.28
2016-07-03T10:46:52.602Z,57.67
2016-07-03T10:47:52.494Z,57.74
2016-07-03T10:48:52.509Z,57.64
2016-07-03T10:49:52.588Z,56.46
2016-07-03T10:50:52.478Z,56.87
2016-07-03T10:51:53.512Z,57.04
2016-07-03T10:52:52.505Z,58.9
2016-07-03T10:53:52.505Z,58.29
2016-07-03T10:54:52.479Z,58
2016-07-03T10:55:52.484Z,57.35
2016-07-03T10:56:52.485Z,55.81
2016-07-03T10:57:52.492Z,54.65
2016-07-03T10:58:52.498Z,55.83
2016-07-03T10:59:52.497Z,56.51
2016-07-03T11:00:52.547Z,55.16
2016-07-03T11:01:52.488Z,55.16
2016-07-03T11:02:52.492Z,56
2016-07-03T11:03:52.718Z,55.74
2016-07-03T11:04:52.606Z,56.13
2016-07-03T11:05:52.621Z,56.32
2016-07-03T11:06:52.521Z,56.22
2016-07-03T11:07:52.513Z,55.74
2016-07-03T11:08:52.523Z,55.55
2016-07-03T11:09:52.579Z,55.74
2016-07-03T11:10:52.550Z,54.9
2016-07-03T11:11:52.567Z,55.29
2016-07-03T11:12:52.533Z,56.54
2016-07-03T11:13:52.638Z,57.41
2016-07-03T11:14:52.675Z,55.57
2016-07-03T11:15:52.499Z,55.87
2016-07-03T11:16:52.527Z,56.54
2016-07-03T11:17:52.513Z,54.44
2016-07-03T11:18:52.521Z,53.83
2016-07-03T11:19:52.529Z,52.41
2016-07-03T11:20:52.535Z,52.31
2016-07-03T11:21:52.527Z,53.96
2016-07-03T11:22:52.509Z,55.21
2016-07-03T11:23:52.513Z,52.63
2016-07-03T11:24:52.598Z,52.53
2016-07-03T11:25:52.505Z,52.92
2016-07-03T11:26:52.585Z,52.24
2016-07-03T11:27:52.500Z,51.66
2016-07-03T11:28:52.526Z,53.11
2016-07-03T11:29:52.553Z,53.14
2016-07-03T11:30:52.618Z,51.08
2016-07-03T11:31:52.556Z,51.47
2016-07-03T11:32:52.531Z,49.22
2016-07-03T11:33:52.506Z,51.35
2016-07-03T11:34:52.534Z,52.22
2016-07-03T11:35:52.528Z,54.73
2016-07-03T11:36:52.526Z,53.67
2016-07-03T11:37:52.553Z,53.83
2016-07-03T11:38:52.788Z,52.7
2016-07-03T11:39:52.546Z,51.25
2016-07-03T11:40:52.528Z,51.64
2016-07-03T11:41:52.529Z,52.12
2016-07-03T11:42:52.558Z,52.8
2016-07-03T11:43:52.537Z,51.25
2016-07-03T11:44:52.537Z,52.89
2016-07-03T11:45:52.550Z,52.73
2016-07-03T11:46:52.937Z,52.53
2016-07-03T11:47:52.618Z,50.5
2016-07-03T11:48:52.587Z,51.37
2016-07-03T11:49:52.583Z,49.73
2016-07-03T11:50:52.553Z,50.79
2016-07-03T11:51:53.181Z,49.37
2016-07-03T11:52:52.644Z,49.73
2016-07-03T11:53:52.626Z,50.4
2016-07-03T11:54:52.609Z,51.08
2016-07-03T11:55:52.623Z,50.04
2016-07-03T11:56:52.828Z,48.39
2016-07-03T11:57:52.637Z,48.47
2016-07-03T11:58:52.628Z,50.12
2016-07-03T11:59:53.311Z,49.34
2016-07-03T12:00:52.626Z,48.64
2016-07-03T12:01:52.590Z,50.76
2016-07-03T12:02:52.608Z,50.96
2016-07-03T12:03:52.617Z,51.23
2016-07-03T12:04:52.575Z,51.61
2016-07-03T12:05:52.560Z,52.87
2016-07-03T12:06:52.629Z,54.75
2016-07-03T12:07:52.622Z,55.13
2016-07-03T12:08:52.584Z,55.3
2016-07-03T12:09:52.589Z,58.1
2016-07-03T12:10:52.598Z,59.13
2016-07-03T12:11:52.584Z,57.75
2016-07-03T12:12:52.589Z,58.94
2016-07-03T12:13:52.669Z,60.55
2016-07-03T12:14:52.589Z,61.87
2016-07-03T12:15:52.576Z,63.85
2016-07-03T12:16:52.561Z,65.01
2016-07-03T12:17:52.601Z,65.88
2016-07-03T12:18:52.629Z,66.94
2016-07-03T12:19:52.570Z,66.91
2016-07-03T12:20:52.631Z,67.77
2016-07-03T12:21:52.563Z,67.68
2016-07-03T12:22:53.085Z,68.84
2016-07-03T12:23:53.159Z,71.24
2016-07-03T12:24:52.677Z,69.31
2016-07-03T12:25:52.625Z,68.16
2016-07-03T12:26:52.887Z,69.85
2016-07-03T12:27:52.692Z,71.43
2016-07-03T12:28:52.895Z,70.56
2016-07-03T12:29:52.650Z,69.18
2016-07-03T12:30:52.587Z,70.92
2016-07-03T12:31:52.688Z,70.34
2016-07-03T12:32:52.584Z,69.18
2016-07-03T12:33:52.595Z,68.41
2016-07-03T12:34:52.687Z,68.86
2016-07-03T12:35:53.040Z,69.24
2016-07-03T12:36:52.685Z,69.24
2016-07-03T12:37:52.732Z,68.9
2016-07-03T12:38:52.596Z,68.22
2016-07-03T12:39:52.605Z,68.6
2016-07-03T12:40:52.634Z,68.7
2016-07-03T12:41:52.615Z,68.13
2016-07-03T12:42:52.604Z,66.88
2016-07-03T12:43:52.594Z,68.7
2016-07-03T12:44:52.594Z,68.22
2016-07-03T12:45:52.598Z,67.77
2016-07-03T12:46:52.649Z,64.21
2016-07-03T12:47:52.843Z,64.12
2016-07-03T12:48:52.627Z,65.88
2016-07-03T12:49:52.673Z,63.25
2016-07-03T12:50:52.585Z,63.54
2016-07-03T12:51:52.590Z,63.57
2016-07-03T12:52:52.626Z,64.59
2016-07-03T12:53:52.594Z,65.94
2016-07-03T12:54:52.648Z,65.78
2016-07-03T12:55:52.695Z,64.15
2016-07-03T12:56:52.699Z,63.15
2016-07-03T12:57:52.725Z,63.34
2016-07-03T12:58:52.670Z,60.65
2016-07-03T12:59:52.669Z,61.13
2016-07-03T13:00:52.690Z,61.52
2016-07-03T13:01:52.648Z,62.19
2016-07-03T13:02:52.676Z,62.77
2016-07-03T13:03:52.618Z,62.96
2016-07-03T13:04:52.873Z,62.77
2016-07-03T13:05:52.983Z,62.87
2016-07-03T13:06:52.619Z,62.03
2016-07-03T13:07:52.665Z,61.93
2016-07-03T13:08:52.648Z,61.07
2016-07-03T13:09:52.653Z,59.65
2016-07-03T13:10:52.630Z,56.09
2016-07-03T13:11:52.731Z,58.01
2016-07-03T13:12:52.596Z,60.45
2016-07-03T13:13:52.658Z,55.82
2016-07-03T13:14:52.614Z,55.92
2016-07-03T13:15:52.674Z,55.63
2016-07-03T13:16:52.675Z,56.59
2016-07-03T13:17:52.665Z,56.69
2016-07-03T13:18:52.652Z,58.04
2016-07-03T13:19:53.000Z,58.14
2016-07-03T13:20:52.619Z,57.27
2016-07-03T13:21:52.633Z,58.04
2016-07-03T13:22:52.706Z,58.33
2016-07-03T13:23:52.633Z,58.62
2016-07-03T13:24:52.628Z,59.68
2016-07-03T13:25:52.627Z,59.58
2016-07-03T13:26:52.644Z,61.13
2016-07-03T13:27:52.634Z,61.03
2016-07-03T13:28:52.629Z,60.64
2016-07-03T13:29:52.634Z,58.04
2016-07-03T13:30:52.787Z,58.72
2016-07-03T13:31:56.365Z,57.27
2016-07-03T13:32:52.650Z,55.02
2016-07-03T13:33:52.656Z,54.54
2016-07-03T13:34:52.697Z,54.93
2016-07-03T13:35:52.749Z,55.63
2016-07-03T13:36:52.650Z,57.65
2016-07-03T13:37:53.079Z,57.37
2016-07-03T13:38:52.816Z,57.85
2016-07-03T13:39:52.754Z,56.98
2016-07-03T13:40:52.678Z,55.44
2016-07-03T13:41:52.854Z,53.99
2016-07-03T13:42:52.662Z,55.18
2016-07-03T13:43:52.764Z,55.18
2016-07-03T13:44:52.693Z,54.88
2016-07-03T13:45:52.654Z,53.25
2016-07-03T13:46:52.743Z,55.08
2016-07-03T13:47:52.735Z,55.63
2016-07-03T13:48:53.179Z,54.02
2016-07-03T13:49:52.673Z,54.11
2016-07-03T13:50:52.710Z,51.99
2016-07-03T13:51:52.724Z,53.92
2016-07-03T13:52:52.703Z,54.79
2016-07-03T13:53:52.691Z,53.44
2016-07-03T13:54:52.683Z,53.83
2016-07-03T13:55:53.406Z,54.31
2016-07-03T13:56:52.650Z,53.92
2016-07-03T13:57:52.740Z,54.96
2016-07-03T13:58:52.685Z,55.24
2016-07-03T13:59:52.685Z,55.63
2016-07-03T14:00:52.875Z,55.05
2016-07-03T14:01:52.656Z,56.59
2016-07-03T14:02:52.678Z,55.24
2016-07-03T14:03:52.667Z,54.86
2016-07-03T14:04:52.726Z,56.88
2016-07-03T14:05:52.673Z,56.3
2016-07-03T14:06:52.683Z,56.98
2016-07-03T14:07:52.672Z,56.4
2016-07-03T14:08:52.681Z,56.18
2016-07-03T14:09:52.705Z,58.14
2016-07-03T14:10:52.703Z,58.78
2016-07-03T14:11:52.789Z,58.97
2016-07-03T14:12:52.778Z,56.76
2016-07-03T14:13:52.688Z,55.7
2016-07-03T14:14:52.705Z,56.18
2016-07-03T14:15:52.682Z,59.65
2016-07-03T14:16:52.763Z,59.65
2016-07-03T14:17:52.695Z,58.69
2016-07-03T14:18:52.709Z,58.11
2016-07-03T14:19:52.737Z,58.97
2016-07-03T14:20:52.689Z,58.11
2016-07-03T14:21:52.709Z,58.01
2016-07-03T14:22:52.715Z,57.34
2016-07-03T14:23:52.692Z,58.4
2016-07-03T14:24:52.722Z,58.2
2016-07-03T14:25:52.718Z,59.07
2016-07-03T14:26:52.850Z,59.62
2016-07-03T14:27:52.763Z,60.03
2016-07-03T14:28:52.736Z,58.2
2016-07-03T14:29:52.712Z,58.65
2016-07-03T14:30:52.882Z,58.47
2016-07-03T14:31:53.324Z,59.52
2016-07-03T14:32:52.681Z,58.11
2016-07-03T14:33:52.889Z,57.98
2016-07-03T14:34:53.055Z,58.85
2016-07-03T14:35:52.695Z,58.75
2016-07-03T14:36:52.703Z,56.92
2016-07-03T14:37:52.787Z,57.4
2016-07-03T14:38:52.739Z,56.73
2016-07-03T14:39:52.712Z,56.25
2016-07-03T14:40:52.729Z,56.76
2016-07-03T14:41:52.738Z,58.56
2016-07-03T14:42:52.744Z,59.36
2016-07-03T14:43:52.735Z,59.04
2016-07-03T14:44:52.773Z,58.95
2016-07-03T14:45:52.717Z,57.5
2016-07-03T14:46:53.431Z,60.3
2016-07-03T14:47:52.752Z,60.2
2016-07-03T14:48:52.757Z,60.2
2016-07-03T14:49:52.746Z,60.3
2016-07-03T14:50:52.739Z,59.75
2016-07-03T14:51:52.718Z,58.11
2016-07-03T14:52:52.742Z,58.78
2016-07-03T14:53:52.738Z,57.31
2016-07-03T14:54:52.738Z,58.97
2016-07-03T14:55:52.733Z,58.69
2016-07-03T14:56:52.743Z,57.5
2016-07-03T14:57:52.733Z,57.5
2016-07-03T14:58:52.741Z,58.59
2016-07-03T14:59:52.872Z,58.49
2016-07-03T15:00:52.750Z,57.92
2016-07-03T15:01:52.803Z,55.22
2016-07-03T15:02:53.139Z,55.12
2016-07-03T15:03:52.765Z,55.6
2016-07-03T15:04:52.764Z,55.12
2016-07-03T15:05:52.739Z,56.27
2016-07-03T15:06:52.784Z,55.12
2016-07-03T15:07:52.721Z,55.02
2016-07-03T15:08:52.776Z,55.6
2016-07-03T15:09:52.754Z,55.02
2016-07-03T15:10:52.849Z,56.09
2016-07-03T15:11:52.737Z,56.18
2016-07-03T15:12:52.788Z,53.48
2016-07-03T15:13:52.752Z,54.64
2016-07-03T15:14:52.811Z,54.64
2016-07-03T15:15:52.758Z,55.31
2016-07-03T15:16:52.826Z,55.41
2016-07-03T15:17:52.780Z,55.51
2016-07-03T15:18:52.776Z,55.51
2016-07-03T15:19:52.763Z,54.74
2016-07-03T15:20:52.810Z,55.22
2016-07-03T15:21:52.708Z,55.41
2016-07-03T15:22:52.732Z,54.74
2016-07-03T15:23:52.810Z,55.09
2016-07-03T15:24:52.769Z,55.19
2016-07-03T15:25:52.829Z,55.19
2016-07-03T15:26:52.834Z,56.37
2016-07-03T15:27:52.782Z,56.18
2016-07-03T15:28:52.886Z,55.7
2016-07-03T15:29:52.774Z,56.18
2016-07-03T15:30:52.908Z,57.82
2016-07-03T15:31:52.759Z,58.3
2016-07-03T15:32:52.743Z,55.31
2016-07-03T15:33:52.752Z,53.58
2016-07-03T15:34:52.807Z,53.96
2016-07-03T15:35:52.760Z,53.19
2016-07-03T15:36:52.749Z,54.83
2016-07-03T15:37:52.777Z,53.58
2016-07-03T15:38:52.869Z,53.48
2016-07-03T15:39:52.813Z,54.06
2016-07-03T15:40:52.771Z,52.42
2016-07-03T15:41:52.791Z,53.29
2016-07-03T15:42:52.879Z,53.96
2016-07-03T15:43:52.761Z,54.38
2016-07-03T15:44:52.847Z,54.09
2016-07-03T15:45:52.798Z,53.41
2016-07-03T15:46:52.775Z,53.96
2016-07-03T15:47:53.426Z,53.7
2016-07-03T15:48:52.783Z,53.8
2016-07-03T15:49:52.807Z,53.8
2016-07-03T15:50:52.777Z,53.03
2016-07-03T15:51:52.779Z,53.51
2016-07-03T15:52:52.836Z,53.22
2016-07-03T15:53:52.979Z,52.64
2016-07-03T15:54:52.803Z,53.99
2016-07-03T15:55:52.783Z,52.35
2016-07-03T15:56:52.765Z,52.25
2016-07-03T15:57:52.773Z,53.7
2016-07-03T15:58:52.841Z,54.66
2016-07-03T15:59:52.800Z,54.28
2016-07-03T16:00:52.809Z,55.15
2016-07-03T16:01:52.898Z,56.98
2016-07-03T16:02:52.768Z,58.3
2016-07-03T16:03:52.808Z,58.49
2016-07-03T16:04:52.842Z,59.94
2016-07-03T16:05:52.821Z,60.32
2016-07-03T16:06:52.799Z,60.52
2016-07-03T16:07:52.962Z,60.61
2016-07-03T16:08:53.772Z,60.52
2016-07-03T16:09:52.948Z,61
2016-07-03T16:10:53.094Z,62.25
2016-07-03T16:11:52.953Z,62.03
2016-07-03T16:12:52.818Z,62.9
2016-07-03T16:13:52.858Z,62.8
2016-07-03T16:14:52.840Z,63.38
2016-07-03T16:15:52.868Z,64.12
2016-07-03T16:16:53.612Z,63.34
2016-07-03T16:17:52.876Z,64.4
2016-07-03T16:18:52.899Z,65.08
2016-07-03T16:19:52.822Z,64.89
2016-07-03T16:20:53.400Z,65.17
2016-07-03T16:21:52.809Z,64.79
2016-07-03T16:22:52.951Z,65.17
2016-07-03T16:23:52.887Z,65.05
2016-07-03T16:24:52.982Z,65.81
2016-07-03T16:25:52.927Z,66.49
2016-07-03T16:26:52.954Z,66.68
2016-07-03T16:27:52.861Z,67.35
2016-07-03T16:28:52.855Z,67.22
2016-07-03T16:29:52.883Z,68.09
2016-07-03T16:30:52.828Z,68.96
2016-07-03T16:31:52.882Z,69.34
2016-07-03T16:32:52.876Z,69.63
2016-07-03T16:33:52.845Z,70.01
2016-07-03T16:34:52.848Z,71.55
2016-07-03T16:35:52.812Z,71.84
2016-07-03T16:36:52.894Z,73.15
2016-07-03T16:37:52.938Z,73.25
2016-07-03T16:38:52.815Z,73.25
2016-07-03T16:39:52.823Z,73.83
2016-07-03T16:40:52.820Z,74.17
2016-07-03T16:41:52.869Z,76
2016-07-03T16:42:52.861Z,77.5
2016-07-03T16:43:52.842Z,80.57
2016-07-03T16:44:53.212Z,80.96
2016-07-03T16:45:52.872Z,81.63
2016-07-03T16:46:52.827Z,83.16
2016-07-03T16:47:52.824Z,83.45
2016-07-03T16:48:52.829Z,84.56
2016-07-03T16:49:52.929Z,85.62
2016-07-03T16:50:52.843Z,86.68
2016-07-03T16:51:52.872Z,87.05
2016-07-03T16:52:52.909Z,86.54
2016-07-03T16:53:52.897Z,87.11
2016-07-03T16:54:52.908Z,88.07
2016-07-03T16:55:52.898Z,87.88
2016-07-03T16:56:52.892Z,89.32
2016-07-03T16:57:52.853Z,89.7
2016-07-03T16:58:52.853Z,90.28
2016-07-03T16:59:52.840Z,90.18
2016-07-03T17:00:52.834Z,89.7
2016-07-03T17:01:52.844Z,91.14
2016-07-03T17:02:52.850Z,92.68
2016-07-03T17:03:52.840Z,91.72
2016-07-03T17:04:52.877Z,91.42
2016-07-03T17:05:52.869Z,92.58
2016-07-03T17:06:54.210Z,92.48
2016-07-03T17:07:52.933Z,93.35
2016-07-03T17:08:52.845Z,93.06
2016-07-03T17:09:52.845Z,93.4
2016-07-03T17:10:53.041Z,94.17
2016-07-03T17:11:52.839Z,93.92
2016-07-03T17:12:52.881Z,93.73
2016-07-03T17:13:52.836Z,93.68
2016-07-03T17:14:52.870Z,93.82
2016-07-03T17:15:52.820Z,93.49
2016-07-03T17:16:52.883Z,94.74
2016-07-03T17:17:52.872Z,94.54
2016-07-03T17:18:52.869Z,94.64
2016-07-03T17:19:52.844Z,94.69
2016-07-03T17:20:53.098Z,94.74
2016-07-03T17:21:53.060Z,95.36
2016-07-03T17:22:53.414Z,95.26
2016-07-03T17:23:53.196Z,95.36
2016-07-03T17:24:52.938Z,94.79
2016-07-03T17:25:52.892Z,94.98
2016-07-03T17:26:52.877Z,95.75
2016-07-03T17:27:53.090Z,95.36
2016-07-03T17:28:52.871Z,95.26
2016-07-03T17:29:53.086Z,94.49
2016-07-03T17:30:52.876Z,93.77
2016-07-03T17:31:52.870Z,93.77
2016-07-03T17:32:52.906Z,93.59
2016-07-03T17:33:52.894Z,93.97
2016-07-03T17:34:52.881Z,93.39
2016-07-03T17:35:52.876Z,93.39
2016-07-03T17:36:52.949Z,93.59
2016-07-03T17:37:52.863Z,93.3
2016-07-03T17:38:52.873Z,93.25
2016-07-03T17:39:52.863Z,92.67
2016-07-03T17:40:52.861Z,92.48
2016-07-03T17:41:52.900Z,93.05
2016-07-03T17:42:52.975Z,92.57
2016-07-03T17:43:54.525Z,92.1
2016-07-03T17:44:52.870Z,92.77
2016-07-03T17:45:52.877Z,92.96
2016-07-03T17:46:52.949Z,93.05
2016-07-03T17:47:52.864Z,93.34
2016-07-03T17:48:52.946Z,92.63
2016-07-03T17:49:52.872Z,93.01
2016-07-03T17:50:52.905Z,92.72
2016-07-03T17:51:52.872Z,91.76
2016-07-03T17:52:52.877Z,91.66
2016-07-03T17:53:52.902Z,91.38
2016-07-03T17:54:52.874Z,92.24
2016-07-03T17:55:53.118Z,91.66
2016-07-03T17:56:53.937Z,92.24
2016-07-03T17:57:52.945Z,93.39
2016-07-03T17:58:52.939Z,93.35
2016-07-03T17:59:52.977Z,93.25
2016-07-03T18:00:52.976Z,93.73
2016-07-03T18:01:53.067Z,95.17
2016-07-03T18:02:53.986Z,95.17
2016-07-03T18:03:52.993Z,95.65
2016-07-03T18:04:52.970Z,95.94
2016-07-03T18:05:52.919Z,96.47
2016-07-03T18:06:52.933Z,96.27
2016-07-03T18:07:52.949Z,96.37
2016-07-03T18:08:52.918Z,96.66
2016-07-03T18:09:52.970Z,96.85
2016-07-03T18:10:53.067Z,96.75
2016-07-03T18:11:52.944Z,96.56
2016-07-03T18:12:52.976Z,97.23
2016-07-03T18:13:53.002Z,98.1
2016-07-03T18:14:52.961Z,98.57
2016-07-03T18:15:52.993Z,98.77
2016-07-03T18:16:52.985Z,99.15
2016-07-03T18:17:52.971Z,99.24
2016-07-03T18:18:52.978Z,98.62
2016-07-03T18:19:52.932Z,99.96
2016-07-03T18:20:52.983Z,99.99
2016-07-03T18:21:53.072Z,99.99
2016-07-03T18:22:52.905Z,99.99
2016-07-03T18:23:52.954Z,99.99
2016-07-03T18:24:52.945Z,99.99
2016-07-03T18:25:52.949Z,99.99
2016-07-03T18:26:52.953Z,99.99
2016-07-03T18:27:53.029Z,99.99
2016-07-03T18:28:52.964Z,99.99
2016-07-03T18:29:53.008Z,99.99
2016-07-03T18:30:53.184Z,99.99
2016-07-03T18:31:53.056Z,99.99
2016-07-03T18:32:52.997Z,99.99
2016-07-03T18:33:52.971Z,99.99
2016-07-03T18:34:52.941Z,99.99
2016-07-03T18:35:52.922Z,99.99
2016-07-03T18:36:52.971Z,99.99
2016-07-03T18:37:53.000Z,99.99
2016-07-03T18:38:53.161Z,99.99
2016-07-03T18:39:52.970Z,99.99
2016-07-03T18:40:53.034Z,99.99
2016-07-03T18:41:52.951Z,99.99
2016-07-03T18:42:53.190Z,99.99
2016-07-03T18:43:53.079Z,99.99
2016-07-03T18:44:53.005Z,99.99
2016-07-03T18:45:53.024Z,99.99
2016-07-03T18:46:52.972Z,99.99
2016-07-03T18:47:53.055Z,99.99
2016-07-03T18:48:53.062Z,99.99
2016-07-03T18:49:52.937Z,99.99
2016-07-03T18:50:52.946Z,99.99
2016-07-03T18:51:53.054Z,99.99
2016-07-03T18:52:53.061Z,99.99
2016-07-03T18:53:53.376Z,99.99
2016-07-03T18:54:53.083Z,99.99
2016-07-03T18:55:52.965Z,99.99
2016-07-03T18:56:53.009Z,99.99
2016-07-03T18:57:52.972Z,99.99
2016-07-03T18:58:53.168Z,99.99
2016-07-03T18:59:53.076Z,99.99
2016-07-03T19:00:53.049Z,99.99
2016-07-03T19:01:53.109Z,99.99
2016-07-03T19:02:53.179Z,99.99
2016-07-03T19:03:53.024Z,99.99
2016-07-03T19:04:53.004Z,99.99
2016-07-03T19:05:52.995Z,99.99
2016-07-03T19:06:53.296Z,99.99
2016-07-03T19:07:53.160Z,99.99
2016-07-03T19:08:53.259Z,99.99
2016-07-03T19:09:54.446Z,99.99
2016-07-03T19:10:53.029Z,99.99
2016-07-03T19:11:53.037Z,99.99
2016-07-03T19:12:52.991Z,99.99
2016-07-03T19:13:53.344Z,99.99
2016-07-03T19:14:53.062Z,99.99
2016-07-03T19:15:53.066Z,99.99
2016-07-03T19:16:53.037Z,99.99
2016-07-03T19:17:53.015Z,99.99
2016-07-03T19:18:53.067Z,99.99
2016-07-03T19:19:53.013Z,99.99
2016-07-03T19:20:53.575Z,99.99
2016-07-03T19:21:53.028Z,99.99
2016-07-03T19:22:53.036Z,99.99
2016-07-03T19:23:53.118Z,99.99
2016-07-03T19:24:53.152Z,99.99
2016-07-03T19:25:53.049Z,99.99
2016-07-03T19:26:53.147Z,99.99
2016-07-03T19:27:53.055Z,99.99
2016-07-03T19:28:53.025Z,99.99
2016-07-03T19:29:53.140Z,99.99
2016-07-03T19:30:53.106Z,99.99
2016-07-03T19:31:53.048Z,99.99
2016-07-03T19:32:53.132Z,99.99
2016-07-03T19:33:53.011Z,99.99
2016-07-03T19:34:53.015Z,99.99
2016-07-03T19:35:53.007Z,99.99
2016-07-03T19:36:53.025Z,99.99
2016-07-03T19:37:53.110Z,99.99
2016-07-03T19:38:53.183Z,99.99
2016-07-03T19:39:54.238Z,99.99
2016-07-03T19:40:53.126Z,99.99
2016-07-03T19:41:53.003Z,99.99
2016-07-03T19:42:53.244Z,99.99
2016-07-03T19:43:53.005Z,99.99
2016-07-03T19:44:52.999Z,99.99
2016-07-03T19:45:53.037Z,99.99
2016-07-03T19:46:53.023Z,99.99
2016-07-03T19:47:53.211Z,99.99
2016-07-03T19:48:53.027Z,99.99
2016-07-03T19:49:53.006Z,99.99
2016-07-03T19:50:53.579Z,99.99
2016-07-03T19:51:53.104Z,99.99
2016-07-03T19:52:53.567Z,99.99
2016-07-03T19:53:53.025Z,99.99
2016-07-03T19:54:53.063Z,99.99
2016-07-03T19:55:53.000Z,99.99
2016-07-03T19:56:53.067Z,99.99
2016-07-03T19:57:53.070Z,99.99
2016-07-03T19:58:53.005Z,99.99
2016-07-03T19:59:53.130Z,99.99
2016-07-03T20:00:53.061Z,99.99
2016-07-03T20:01:53.068Z,99.99
2016-07-03T20:02:53.161Z,99.99
2016-07-03T20:03:53.056Z,99.99
2016-07-03T20:04:53.072Z,99.99
2016-07-03T20:05:53.041Z,99.99
2016-07-03T20:06:53.281Z,99.99
2016-07-03T20:07:53.026Z,99.99
2016-07-03T20:08:53.092Z,99.99
2016-07-03T20:09:53.093Z,99.99
2016-07-03T20:10:53.063Z,99.99
2016-07-03T20:11:53.184Z,99.99
2016-07-03T20:12:53.371Z,99.99
2016-07-03T20:13:53.119Z,99.99
2016-07-03T20:14:53.767Z,99.99
2016-07-03T20:15:54.093Z,99.99
2016-07-03T20:16:53.054Z,99.99
2016-07-03T20:17:53.754Z,99.99
2016-07-03T20:18:53.772Z,99.99
2016-07-03T20:19:53.107Z,99.99
2016-07-03T20:20:53.065Z,99.99
2016-07-03T20:21:53.067Z,99.99
2016-07-03T20:22:53.058Z,99.99
2016-07-03T20:23:53.031Z,99.99
2016-07-03T20:24:53.043Z,99.99
2016-07-03T20:25:53.186Z,99.99
2016-07-03T20:26:53.104Z,99.99
2016-07-03T20:27:53.046Z,99.99
2016-07-03T20:28:53.032Z,99.99
2016-07-03T20:29:53.043Z,99.99
2016-07-03T20:30:53.041Z,99.99
2016-07-03T20:31:53.070Z,99.99
2016-07-03T20:32:53.284Z,99.99
2016-07-03T20:33:53.074Z,99.99
2016-07-03T20:34:53.075Z,99.99
2016-07-03T20:35:53.158Z,99.99
2016-07-03T20:36:53.418Z,99.99
2016-07-03T20:37:53.072Z,99.99
2016-07-03T20:38:53.091Z,99.99
2016-07-03T20:39:53.115Z,99.99
2016-07-03T20:40:53.107Z,99.99
2016-07-03T20:41:53.048Z,99.99
2016-07-03T20:42:53.188Z,99.99
2016-07-03T20:43:53.064Z,99.99
2016-07-03T20:44:53.134Z,99.99
2016-07-03T20:45:53.123Z,99.99
2016-07-03T20:46:53.114Z,99.99
2016-07-03T20:47:53.478Z,99.99
2016-07-03T20:48:55.530Z,99.99
2016-07-03T20:49:53.393Z,99.99
2016-07-03T20:50:53.292Z,99.99
2016-07-03T20:51:53.055Z,99.99
2016-07-03T20:52:53.133Z,99.99
2016-07-03T20:53:53.051Z,99.99
2016-07-03T20:54:53.083Z,99.99
2016-07-03T20:55:53.065Z,99.99
2016-07-03T20:56:53.048Z,99.99
2016-07-03T20:57:53.055Z,99.99
2016-07-03T20:58:53.049Z,99.99
2016-07-03T20:59:53.050Z,99.99
2016-07-03T21:00:53.217Z,99.99
2016-07-03T21:01:53.607Z,99.99
2016-07-03T21:02:53.579Z,99.99
2016-07-03T21:03:53.288Z,99.99
2016-07-03T21:04:53.400Z,99.99
2016-07-03T21:05:54.297Z,99.99
2016-07-03T21:06:53.494Z,99.99
2016-07-03T21:07:53.172Z,99.99
2016-07-03T21:08:53.190Z,99.99
2016-07-03T21:09:53.264Z,99.99
2016-07-03T21:10:53.340Z,99.99
2016-07-03T21:11:53.443Z,99.99
2016-07-03T21:12:53.245Z,99.99
2016-07-03T21:14:05.705Z,99.99
2016-07-03T21:15:05.640Z,99.99
2016-07-03T21:16:05.631Z,99.99
2016-07-03T21:17:05.710Z,99.99
2016-07-03T21:18:05.647Z,99.99
2016-07-03T21:19:05.643Z,99.99
2016-07-03T21:20:05.722Z,99.99
2016-07-03T21:21:05.670Z,99.99
2016-07-03T21:22:05.640Z,99.99
2016-07-03T21:23:05.667Z,99.99
2016-07-03T21:24:05.807Z,99.99
2016-07-03T21:25:05.688Z,99.99
2016-07-03T21:26:05.672Z,99.99
2016-07-03T21:27:05.664Z,99.99
2016-07-03T21:28:05.668Z,99.99
2016-07-03T21:29:05.959Z,99.99
2016-07-03T21:30:05.781Z,99.99
2016-07-03T21:31:05.844Z,99.99
2016-07-03T21:32:06.037Z,99.99
2016-07-03T21:33:05.677Z,99.99
2016-07-03T21:34:05.713Z,99.99
2016-07-03T21:35:05.782Z,99.99
2016-07-03T21:36:05.795Z,99.99
2016-07-03T21:37:06.001Z,99.99
2016-07-03T21:38:05.740Z,99.99
2016-07-03T21:39:05.715Z,99.99
2016-07-03T21:40:05.831Z,99.99
2016-07-03T21:41:05.895Z,99.99
2016-07-03T21:42:05.738Z,99.99
2016-07-03T21:43:06.039Z,99.99
2016-07-03T21:44:05.678Z,99.99
2016-07-03T21:45:06.049Z,99.99
2016-07-03T21:46:05.664Z,99.99
2016-07-03T21:47:05.642Z,99.99
2016-07-03T21:48:05.862Z,99.99
2016-07-03T21:49:05.659Z,99.99
2016-07-03T21:50:05.668Z,99.99
2016-07-03T21:51:05.698Z,99.99
2016-07-03T21:52:05.681Z,99.99
2016-07-03T21:53:05.656Z,99.99
2016-07-03T21:54:05.723Z,99.99
2016-07-03T21:55:05.690Z,99.99
2016-07-03T21:56:05.666Z,99.99
2016-07-03T21:57:05.695Z,99.99
2016-07-03T21:58:05.690Z,99.99
2016-07-03T21:59:05.671Z,99.99
2016-07-03T22:00:05.692Z,99.99
2016-07-03T22:01:05.666Z,99.99
2016-07-03T22:03:05.710Z,99.99
2016-07-03T22:04:05.732Z,99.99
2016-07-03T22:05:05.676Z,99.99
2016-07-03T22:06:05.676Z,99.99
2016-07-03T22:07:05.662Z,99.99
2016-07-03T22:08:05.690Z,99.99
2016-07-03T22:09:05.717Z,99.99
2016-07-03T22:10:05.729Z,99.99
2016-07-03T22:11:05.675Z,99.99
2016-07-03T22:12:05.678Z,99.99
2016-07-03T22:13:05.752Z,99.99
2016-07-03T22:14:05.662Z,99.99
2016-07-03T22:15:05.732Z,99.99
2016-07-03T22:16:05.666Z,99.99
2016-07-03T22:17:05.785Z,99.99
2016-07-03T22:18:05.655Z,99.99
2016-07-03T22:19:05.665Z,99.99
2016-07-03T22:20:05.761Z,99.99
2016-07-03T22:21:05.835Z,99.99
2016-07-03T22:22:05.754Z,99.99
2016-07-03T22:23:05.675Z,99.99
2016-07-03T22:24:05.676Z,99.99
2016-07-03T22:25:05.832Z,99.99
2016-07-03T22:26:05.843Z,99.99
2016-07-03T22:27:05.849Z,99.99
2016-07-03T22:28:05.675Z,99.99
2016-07-03T22:29:06.268Z,99.99
2016-07-03T22:30:05.755Z,99.99
2016-07-03T22:31:05.898Z,99.99
2016-07-03T22:32:05.994Z,99.99
2016-07-03T22:33:05.893Z,99.99
2016-07-03T22:34:05.987Z,99.99
2016-07-03T22:35:05.698Z,99.99
2016-07-03T22:36:05.665Z,99.99
2016-07-03T22:37:06.107Z,99.99
2016-07-03T22:38:05.707Z,99.99
2016-07-03T22:39:05.714Z,99.99
2016-07-03T22:40:05.733Z,99.99
2016-07-03T22:41:05.690Z,99.99
2016-07-03T22:42:05.885Z,99.99
2016-07-03T22:43:05.697Z,99.99
2016-07-03T22:44:05.710Z,99.99
2016-07-03T22:45:05.713Z,99.99
2016-07-03T22:46:06.060Z,99.99
2016-07-03T22:47:05.713Z,99.99
2016-07-03T22:48:05.831Z,99.99
2016-07-03T22:49:05.683Z,99.99
2016-07-03T22:50:05.732Z,99.99
2016-07-03T22:51:05.698Z,99.99
2016-07-03T22:52:05.774Z,99.99
2016-07-03T22:53:05.705Z,99.99
2016-07-03T22:54:05.711Z,99.99
2016-07-03T22:55:05.757Z,99.99
2016-07-03T22:56:05.776Z,99.99
2016-07-03T22:57:05.714Z,99.99
2016-07-03T22:58:05.725Z,99.99
2016-07-03T22:59:05.730Z,99.99
2016-07-03T23:00:05.755Z,99.99
2016-07-03T23:01:05.803Z,99.99
2016-07-03T23:02:05.727Z,99.99
2016-07-03T23:03:05.735Z,99.99
2016-07-03T23:04:05.727Z,99.99
2016-07-03T23:05:05.819Z,99.99
2016-07-03T23:06:05.731Z,99.99
2016-07-03T23:07:05.716Z,99.99
2016-07-03T23:08:05.705Z,99.99
2016-07-03T23:09:05.735Z,99.99
2016-07-03T23:10:05.766Z,99.99
2016-07-03T23:11:05.748Z,99.99
2016-07-03T23:12:05.706Z,99.99